createdAt,value
2022-12-28T00:00:05.909Z,1014.19
2022-12-28T00:01:05.087Z,1014.12
2022-12-28T00:02:05.105Z,1014.16
2022-12-28T00:03:05.094Z,1014.02
2022-12-28T00:04:05.030Z,1014.06
2022-12-28T00:05:06.741Z,1013.93
2022-12-28T00:06:04.997Z,1013.98
2022-12-28T00:07:08.909Z,1013.88
2022-12-28T00:08:08.801Z,1013.87
2022-12-28T00:09:05.176Z,1013.74
2022-12-28T00:10:04.957Z,1013.80
2022-12-28T00:11:09.464Z,1013.67
2022-12-28T00:12:05.951Z,1013.66
2022-12-28T00:13:04.913Z,1013.57
2022-12-28T00:14:04.903Z,1013.56
2022-12-28T00:15:05.666Z,1013.49
2022-12-28T00:16:04.871Z,1013.52
2022-12-28T00:17:04.860Z,1013.52
2022-12-28T00:18:04.846Z,1013.50
2022-12-28T00:19:16.775Z,1013.51
2022-12-28T00:20:04.839Z,1013.53
2022-12-28T00:21:04.869Z,1013.56
2022-12-28T00:22:04.823Z,1013.49
2022-12-28T00:23:04.787Z,1013.50
2022-12-28T00:24:05.594Z,1013.57
2022-12-28T00:25:04.825Z,1013.62
2022-12-28T00:26:04.750Z,1013.57
2022-12-28T00:27:05.607Z,1013.52
2022-12-28T00:28:04.733Z,1013.56
2022-12-28T00:29:05.850Z,1013.56
2022-12-28T00:30:04.717Z,1013.50
2022-12-28T00:31:05.488Z,1013.49
2022-12-28T00:32:09.579Z,1013.45
2022-12-28T00:33:04.697Z,1013.43
2022-12-28T00:34:08.883Z,1013.46
2022-12-28T00:35:05.649Z,1013.39
2022-12-28T00:36:04.631Z,1013.37
2022-12-28T00:37:12.107Z,1013.43
2022-12-28T00:38:10.796Z,1013.55
2022-12-28T00:39:04.602Z,1013.50
2022-12-28T00:40:04.817Z,1013.46
2022-12-28T00:41:04.573Z,1013.48
2022-12-28T00:42:04.576Z,1013.47
2022-12-28T00:43:04.566Z,1013.55
2022-12-28T00:44:04.643Z,1013.50
2022-12-28T00:45:04.519Z,1013.50
2022-12-28T00:46:04.844Z,1013.42
2022-12-28T00:47:05.127Z,1013.38
2022-12-28T00:48:05.303Z,1013.46
2022-12-28T00:49:04.485Z,1013.51
2022-12-28T00:50:04.531Z,1013.50
2022-12-28T00:51:04.456Z,1013.46
2022-12-28T00:52:04.455Z,1013.46
2022-12-28T00:53:08.323Z,1013.48
2022-12-28T00:54:04.427Z,1013.30
2022-12-28T00:55:06.179Z,1013.42
2022-12-28T00:56:04.405Z,1013.29
2022-12-28T00:57:04.369Z,1013.24
2022-12-28T00:58:04.374Z,1013.35
2022-12-28T00:59:04.357Z,1013.29
2022-12-28T01:00:04.344Z,1013.28
2022-12-28T01:01:04.415Z,1013.35
2022-12-28T01:02:04.587Z,1013.17
2022-12-28T01:03:04.422Z,1013.12
2022-12-28T01:04:04.989Z,1013.15
2022-12-28T01:05:05.094Z,1013.17
2022-12-28T01:06:08.357Z,1013.23
2022-12-28T01:07:04.257Z,1013.14
2022-12-28T01:08:04.941Z,1013.00
2022-12-28T01:09:04.227Z,1013.09
2022-12-28T01:10:04.286Z,1012.93
2022-12-28T01:11:05.948Z,1012.96
2022-12-28T01:12:04.989Z,1012.94
2022-12-28T01:13:04.183Z,1012.89
2022-12-28T01:14:19.370Z,1012.86
2022-12-28T01:15:04.148Z,1012.82
2022-12-28T01:16:04.187Z,1012.75
2022-12-28T01:17:04.118Z,1012.67
2022-12-28T01:18:04.118Z,1012.70
2022-12-28T01:19:04.112Z,1012.68
2022-12-28T01:20:04.214Z,1012.67
2022-12-28T01:21:04.080Z,1012.68
2022-12-28T01:22:04.835Z,1012.72
2022-12-28T01:23:04.063Z,1012.70
2022-12-28T01:24:04.091Z,1012.72
2022-12-28T01:25:06.088Z,1012.67
2022-12-28T01:26:04.016Z,1012.68
2022-12-28T01:27:04.017Z,1012.61
2022-12-28T01:28:04.422Z,1012.58
2022-12-28T01:29:07.954Z,1012.72
2022-12-28T01:30:05.101Z,1012.55
2022-12-28T01:31:04.773Z,1012.51
2022-12-28T01:32:03.985Z,1012.55
2022-12-28T01:33:03.963Z,1012.50
2022-12-28T01:34:03.958Z,1012.44
2022-12-28T01:35:04.023Z,1012.49
2022-12-28T01:36:04.075Z,1012.45
2022-12-28T01:37:05.608Z,1012.34
2022-12-28T01:38:06.135Z,1012.40
2022-12-28T01:39:07.749Z,1012.43
2022-12-28T01:40:03.843Z,1012.37
2022-12-28T01:41:03.846Z,1012.32
2022-12-28T01:42:04.661Z,1012.36
2022-12-28T01:43:03.825Z,1012.20
2022-12-28T01:44:03.815Z,1012.24
2022-12-28T01:45:03.892Z,1012.24
2022-12-28T01:46:03.792Z,1012.22
2022-12-28T01:47:03.748Z,1012.24
2022-12-28T01:48:03.780Z,1012.23
2022-12-28T01:49:03.754Z,1012.15
2022-12-28T01:50:03.719Z,1012.12
2022-12-28T01:51:03.725Z,1012.08
2022-12-28T01:52:04.396Z,1012.16
2022-12-28T01:53:03.690Z,1012.03
2022-12-28T01:54:04.482Z,1012.07
2022-12-28T01:55:03.667Z,1011.97
2022-12-28T01:56:03.661Z,1011.97
2022-12-28T01:57:03.656Z,1011.92
2022-12-28T01:58:03.639Z,1011.92
2022-12-28T01:59:03.613Z,1011.89
2022-12-28T02:00:08.323Z,1011.93
2022-12-28T02:01:03.951Z,1011.90
2022-12-28T02:02:03.849Z,1011.93
2022-12-28T02:03:03.898Z,1011.88
2022-12-28T02:04:04.507Z,1011.92
2022-12-28T02:05:03.680Z,1011.85
2022-12-28T02:06:03.561Z,1011.90
2022-12-28T02:07:03.534Z,1011.82
2022-12-28T02:08:03.520Z,1011.78
2022-12-28T02:09:03.506Z,1011.85
2022-12-28T02:10:42.996Z,1011.79
2022-12-28T02:11:08.524Z,1011.70
2022-12-28T02:12:03.494Z,1011.81
2022-12-28T02:13:03.468Z,1011.61
2022-12-28T02:14:03.431Z,1011.69
2022-12-28T02:15:03.717Z,1011.71
2022-12-28T02:16:03.405Z,1011.63
2022-12-28T02:17:03.464Z,1011.59
2022-12-28T02:18:03.388Z,1011.49
2022-12-28T02:19:03.356Z,1011.52
2022-12-28T02:20:03.364Z,1011.61
2022-12-28T02:21:03.373Z,1011.41
2022-12-28T02:22:03.333Z,1011.45
2022-12-28T02:23:07.365Z,1011.43
2022-12-28T02:24:03.324Z,1011.46
2022-12-28T02:25:12.731Z,1011.40
2022-12-28T02:26:04.278Z,1011.42
2022-12-28T02:27:03.261Z,1011.36
2022-12-28T02:28:03.273Z,1011.29
2022-12-28T02:29:03.356Z,1011.28
2022-12-28T02:30:04.196Z,1011.31
2022-12-28T02:31:03.257Z,1011.32
2022-12-28T02:32:03.221Z,1011.27
2022-12-28T02:33:03.194Z,1011.18
2022-12-28T02:34:03.192Z,1011.09
2022-12-28T02:35:03.936Z,1011.04
2022-12-28T02:36:03.161Z,1011.15
2022-12-28T02:37:03.965Z,1011.15
2022-12-28T02:38:03.145Z,1011.19
2022-12-28T02:39:03.129Z,1011.16
2022-12-28T02:40:03.117Z,1010.97
2022-12-28T02:41:03.388Z,1010.99
2022-12-28T02:42:03.086Z,1011.00
2022-12-28T02:43:03.077Z,1011.10
2022-12-28T02:44:03.098Z,1011.05
2022-12-28T02:45:07.044Z,1011.07
2022-12-28T02:46:03.111Z,1010.95
2022-12-28T02:47:07.107Z,1010.83
2022-12-28T02:48:03.012Z,1010.85
2022-12-28T02:49:03.009Z,1010.75
2022-12-28T02:50:03.011Z,1010.73
2022-12-28T02:51:03.263Z,1010.83
2022-12-28T02:52:02.997Z,1010.87
2022-12-28T02:53:02.982Z,1010.78
2022-12-28T02:54:03.724Z,1010.77
2022-12-28T02:55:02.931Z,1010.72
2022-12-28T02:56:03.582Z,1010.71
2022-12-28T02:57:02.925Z,1010.75
2022-12-28T02:58:02.938Z,1010.74
2022-12-28T02:59:02.917Z,1010.74
2022-12-28T03:00:02.878Z,1010.71
2022-12-28T03:01:02.929Z,1010.69
2022-12-28T03:02:03.188Z,1010.73
2022-12-28T03:03:02.863Z,1010.50
2022-12-28T03:04:02.829Z,1010.53
2022-12-28T03:05:02.835Z,1010.53
2022-12-28T03:06:02.793Z,1010.48
2022-12-28T03:07:02.808Z,1010.57
2022-12-28T03:08:02.773Z,1010.56
2022-12-28T03:09:02.771Z,1010.45
2022-12-28T03:10:02.747Z,1010.57
2022-12-28T03:11:02.759Z,1010.41
2022-12-28T03:12:02.723Z,1010.46
2022-12-28T03:13:02.703Z,1010.31
2022-12-28T03:14:02.693Z,1010.50
2022-12-28T03:15:03.179Z,1010.41
2022-12-28T03:16:02.784Z,1010.42
2022-12-28T03:17:02.710Z,1010.39
2022-12-28T03:18:04.419Z,1010.34
2022-12-28T03:19:02.923Z,1010.25
2022-12-28T03:20:06.502Z,1010.14
2022-12-28T03:21:02.600Z,1010.11
2022-12-28T03:22:02.610Z,1010.18
2022-12-28T03:23:02.606Z,1010.23
2022-12-28T03:24:02.571Z,1010.12
2022-12-28T03:25:02.588Z,1010.06
2022-12-28T03:26:02.546Z,1010.13
2022-12-28T03:27:02.548Z,1009.94
2022-12-28T03:28:06.503Z,1010.13
2022-12-28T03:29:03.195Z,1010.05
2022-12-28T03:30:02.493Z,1009.87
2022-12-28T03:31:03.605Z,1010.08
2022-12-28T03:32:02.471Z,1010.05
2022-12-28T03:33:02.725Z,1010.10
2022-12-28T03:34:02.455Z,1009.96
2022-12-28T03:35:02.549Z,1010.01
2022-12-28T03:36:02.428Z,1009.95
2022-12-28T03:37:02.406Z,1009.91
2022-12-28T03:38:02.418Z,1009.86
2022-12-28T03:39:02.386Z,1009.84
2022-12-28T03:40:02.816Z,1009.89
2022-12-28T03:41:03.617Z,1009.86
2022-12-28T03:42:02.351Z,1009.80
2022-12-28T03:43:02.344Z,1009.86
2022-12-28T03:44:02.344Z,1009.81
2022-12-28T03:45:03.096Z,1009.78
2022-12-28T03:46:06.345Z,1009.79
2022-12-28T03:47:02.405Z,1009.70
2022-12-28T03:48:02.285Z,1009.66
2022-12-28T03:49:06.278Z,1009.70
2022-12-28T03:50:02.251Z,1009.70
2022-12-28T03:51:02.535Z,1009.71
2022-12-28T03:52:06.502Z,1009.75
2022-12-28T03:53:02.268Z,1009.74
2022-12-28T03:54:02.344Z,1009.63
2022-12-28T03:55:03.650Z,1009.62
2022-12-28T03:56:02.181Z,1009.59
2022-12-28T03:57:02.161Z,1009.55
2022-12-28T03:58:02.157Z,1009.44
2022-12-28T03:59:03.299Z,1009.63
2022-12-28T04:00:02.131Z,1009.48
2022-12-28T04:01:02.165Z,1009.50
2022-12-28T04:02:23.584Z,1009.30
2022-12-28T04:03:02.689Z,1009.35
2022-12-28T04:04:02.072Z,1009.32
2022-12-28T04:05:06.025Z,1009.23
2022-12-28T04:06:02.044Z,1009.28
2022-12-28T04:07:02.432Z,1009.33
2022-12-28T04:08:02.294Z,1009.29
2022-12-28T04:09:02.018Z,1009.24
2022-12-28T04:10:02.017Z,1009.19
2022-12-28T04:11:02.118Z,1009.22
2022-12-28T04:12:01.965Z,1009.33
2022-12-28T04:13:02.000Z,1009.18
2022-12-28T04:14:06.873Z,1009.21
2022-12-28T04:15:03.647Z,1009.24
2022-12-28T04:16:05.788Z,1009.17
2022-12-28T04:17:02.960Z,1009.13
2022-12-28T04:18:01.908Z,1009.14
2022-12-28T04:19:02.182Z,1009.19
2022-12-28T04:20:01.889Z,1009.17
2022-12-28T04:21:01.871Z,1009.22
2022-12-28T04:22:01.852Z,1009.19
2022-12-28T04:23:01.864Z,1009.28
2022-12-28T04:24:02.101Z,1009.09
2022-12-28T04:25:01.830Z,1009.04
2022-12-28T04:26:01.814Z,1009.13
2022-12-28T04:27:02.602Z,1009.14
2022-12-28T04:28:01.815Z,1009.03
2022-12-28T04:29:06.533Z,1009.08
2022-12-28T04:30:05.927Z,1009.02
2022-12-28T04:31:05.844Z,1009.04
2022-12-28T04:32:01.753Z,1008.97
2022-12-28T04:33:06.402Z,1008.94
2022-12-28T04:34:14.010Z,1008.99
2022-12-28T04:35:05.707Z,1008.96
2022-12-28T04:36:01.684Z,1008.88
2022-12-28T04:37:01.684Z,1008.93
2022-12-28T04:38:01.933Z,1008.91
2022-12-28T04:39:01.933Z,1008.98
2022-12-28T04:40:01.965Z,1008.94
2022-12-28T04:41:01.653Z,1008.81
2022-12-28T04:42:01.613Z,1008.94
2022-12-28T04:43:01.621Z,1008.87
2022-12-28T04:44:01.595Z,1008.88
2022-12-28T04:45:01.864Z,1008.88
2022-12-28T04:46:01.865Z,1008.91
2022-12-28T04:47:02.383Z,1008.79
2022-12-28T04:48:05.483Z,1008.79
2022-12-28T04:49:01.537Z,1008.82
2022-12-28T04:50:01.507Z,1008.85
2022-12-28T04:51:01.524Z,1008.81
2022-12-28T04:52:01.519Z,1008.98
2022-12-28T04:53:01.490Z,1008.78
2022-12-28T04:54:01.458Z,1008.68
2022-12-28T04:55:01.458Z,1008.80
2022-12-28T04:56:01.437Z,1008.75
2022-12-28T04:57:01.441Z,1008.70
2022-12-28T04:58:05.289Z,1008.79
2022-12-28T04:59:01.424Z,1008.77
2022-12-28T05:00:01.425Z,1008.86
2022-12-28T05:01:01.498Z,1008.88
2022-12-28T05:02:01.644Z,1008.79
2022-12-28T05:03:01.379Z,1008.76
2022-12-28T05:04:01.491Z,1008.68
2022-12-28T05:05:01.341Z,1008.76
2022-12-28T05:06:01.321Z,1008.70
2022-12-28T05:07:01.301Z,1008.68
2022-12-28T05:08:01.607Z,1008.79
2022-12-28T05:09:01.285Z,1008.78
2022-12-28T05:10:01.369Z,1008.84
2022-12-28T05:11:02.043Z,1008.70
2022-12-28T05:12:01.232Z,1008.71
2022-12-28T05:13:01.238Z,1008.77
2022-12-28T05:14:01.231Z,1008.71
2022-12-28T05:15:01.228Z,1008.64
2022-12-28T05:16:01.580Z,1008.73
2022-12-28T05:17:01.230Z,1008.72
2022-12-28T05:18:01.188Z,1008.72
2022-12-28T05:19:01.153Z,1008.68
2022-12-28T05:20:01.135Z,1008.74
2022-12-28T05:21:01.149Z,1008.63
2022-12-28T05:22:01.152Z,1008.84
2022-12-28T05:23:01.125Z,1008.73
2022-12-28T05:24:01.384Z,1008.74
2022-12-28T05:25:01.088Z,1008.72
2022-12-28T05:26:01.065Z,1008.77
2022-12-28T05:27:01.058Z,1008.68
2022-12-28T05:28:01.163Z,1008.58
2022-12-28T05:29:01.037Z,1008.67
2022-12-28T05:30:01.056Z,1008.60
2022-12-28T05:31:01.094Z,1008.61
2022-12-28T05:32:01.757Z,1008.66
2022-12-28T05:33:00.979Z,1008.77
2022-12-28T05:34:01.170Z,1008.69
2022-12-28T05:35:00.974Z,1008.75
2022-12-28T05:36:00.977Z,1008.77
2022-12-28T05:37:01.270Z,1008.70
2022-12-28T05:38:01.202Z,1008.74
2022-12-28T05:39:00.923Z,1008.66
2022-12-28T05:40:01.020Z,1008.61
2022-12-28T05:41:00.893Z,1008.61
2022-12-28T05:42:00.887Z,1008.52
2022-12-28T05:43:00.873Z,1008.53
2022-12-28T05:44:00.847Z,1008.56
2022-12-28T05:45:00.847Z,1008.41
2022-12-28T05:46:00.844Z,1008.58
2022-12-28T05:47:00.846Z,1008.51
2022-12-28T05:48:00.895Z,1008.59
2022-12-28T05:49:00.792Z,1008.71
2022-12-28T05:50:00.952Z,1008.66
2022-12-28T05:51:00.799Z,1008.59
2022-12-28T05:52:00.784Z,1008.62
2022-12-28T05:53:00.752Z,1008.52
2022-12-28T05:54:00.743Z,1008.50
2022-12-28T05:55:00.755Z,1008.49
2022-12-28T05:56:01.645Z,1008.45
2022-12-28T05:57:00.711Z,1008.40
2022-12-28T05:58:00.707Z,1008.47
2022-12-28T05:59:00.858Z,1008.54
2022-12-28T06:00:00.659Z,1008.51
2022-12-28T06:01:00.670Z,1008.39
2022-12-28T06:02:00.803Z,1008.45
2022-12-28T06:03:01.507Z,1008.31
2022-12-28T06:04:00.643Z,1008.33
2022-12-28T06:05:01.418Z,1008.31
2022-12-28T06:06:00.589Z,1008.36
2022-12-28T06:07:00.578Z,1008.43
2022-12-28T06:08:01.221Z,1008.34
2022-12-28T06:09:00.559Z,1008.43
2022-12-28T06:10:00.662Z,1008.37
2022-12-28T06:11:01.280Z,1008.45
2022-12-28T06:12:00.501Z,1008.46
2022-12-28T06:13:00.801Z,1008.48
2022-12-28T06:14:00.483Z,1008.53
2022-12-28T06:15:00.757Z,1008.52
2022-12-28T06:16:00.489Z,1008.43
2022-12-28T06:17:00.481Z,1008.53
2022-12-28T06:18:00.442Z,1008.50
2022-12-28T06:19:00.421Z,1008.30
2022-12-28T06:20:00.422Z,1008.37
2022-12-28T06:21:00.645Z,1008.49
2022-12-28T06:22:00.500Z,1008.34
2022-12-28T06:23:00.383Z,1008.32
2022-12-28T06:24:01.062Z,1008.43
2022-12-28T06:25:00.362Z,1008.33
2022-12-28T06:26:00.333Z,1008.41
2022-12-28T06:27:00.333Z,1008.39
2022-12-28T06:28:00.348Z,1008.36
2022-12-28T06:29:00.697Z,1008.44
2022-12-28T06:30:00.295Z,1008.43
2022-12-28T06:31:00.278Z,1008.46
2022-12-28T06:32:00.333Z,1008.35
2022-12-28T06:33:00.270Z,1008.43
2022-12-28T06:34:00.841Z,1008.37
2022-12-28T06:35:00.514Z,1008.46
2022-12-28T06:36:00.219Z,1008.44
2022-12-28T06:37:00.234Z,1008.39
2022-12-28T06:38:00.190Z,1008.49
2022-12-28T06:39:00.191Z,1008.44
2022-12-28T06:40:00.195Z,1008.42
2022-12-28T06:41:13.323Z,1008.42
2022-12-28T06:42:01.487Z,1008.37
2022-12-28T06:43:00.368Z,1008.37
2022-12-28T06:44:00.121Z,1008.34
2022-12-28T06:45:00.127Z,1008.22
2022-12-28T06:46:00.194Z,1008.37
2022-12-28T06:47:00.108Z,1008.37
2022-12-28T06:48:00.073Z,1008.34
2022-12-28T06:49:00.052Z,1008.28
2022-12-28T06:50:00.059Z,1008.19
2022-12-28T06:51:00.021Z,1008.27
2022-12-28T06:52:00.053Z,1008.23
2022-12-28T06:53:00.012Z,1008.27
2022-12-28T06:54:00.002Z,1008.29
2022-12-28T06:55:00.939Z,1008.30
2022-12-28T06:55:59.984Z,1008.37
2022-12-28T06:57:01.363Z,1008.27
2022-12-28T06:58:00.331Z,1008.33
2022-12-28T06:59:03.419Z,1008.21
2022-12-28T06:59:59.962Z,1008.21
2022-12-28T07:01:00.858Z,1008.32
2022-12-28T07:02:00.150Z,1008.31
2022-12-28T07:03:00.755Z,1008.27
2022-12-28T07:04:00.381Z,1008.35
2022-12-28T07:04:59.870Z,1008.38
2022-12-28T07:05:59.852Z,1008.35
2022-12-28T07:07:00.647Z,1008.25
2022-12-28T07:07:59.821Z,1008.23
2022-12-28T07:08:59.818Z,1008.08
2022-12-28T07:09:59.823Z,1008.22
2022-12-28T07:11:00.623Z,1008.07
2022-12-28T07:12:00.065Z,1008.32
2022-12-28T07:12:59.763Z,1008.14
2022-12-28T07:13:59.751Z,1008.22
2022-12-28T07:14:59.729Z,1008.18
2022-12-28T07:15:59.764Z,1008.17
2022-12-28T07:16:59.996Z,1008.23
2022-12-28T07:17:59.707Z,1008.13
2022-12-28T07:18:59.692Z,1008.13
2022-12-28T07:19:59.678Z,1008.20
2022-12-28T07:20:59.999Z,1008.19
2022-12-28T07:21:59.806Z,1008.01
2022-12-28T07:22:59.645Z,1008.07
2022-12-28T07:23:59.647Z,1008.08
2022-12-28T07:25:00.088Z,1008.13
2022-12-28T07:26:00.129Z,1008.08
2022-12-28T07:26:59.585Z,1008.11
2022-12-28T07:28:00.245Z,1008.06
2022-12-28T07:29:00.042Z,1008.16
2022-12-28T07:29:59.604Z,1008.21
2022-12-28T07:31:00.354Z,1008.13
2022-12-28T07:31:59.911Z,1008.10
2022-12-28T07:33:00.083Z,1008.08
2022-12-28T07:33:59.534Z,1008.20
2022-12-28T07:34:59.473Z,1008.18
2022-12-28T07:35:59.472Z,1008.14
2022-12-28T07:37:00.279Z,1008.17
2022-12-28T07:37:59.449Z,1008.17
2022-12-28T07:39:00.218Z,1008.07
2022-12-28T07:39:59.473Z,1008.08
2022-12-28T07:40:59.473Z,1008.05
2022-12-28T07:41:59.405Z,1008.09
2022-12-28T07:42:59.441Z,1008.07
2022-12-28T07:43:59.375Z,1008.14
2022-12-28T07:44:59.447Z,1008.19
2022-12-28T07:45:59.505Z,1008.17
2022-12-28T07:47:00.151Z,1008.14
2022-12-28T07:47:59.306Z,1008.14
2022-12-28T07:48:59.306Z,1008.18
2022-12-28T07:49:59.437Z,1008.22
2022-12-28T07:50:59.272Z,1008.18
2022-12-28T07:51:59.321Z,1008.25
2022-12-28T07:52:59.251Z,1008.24
2022-12-28T07:53:59.243Z,1008.32
2022-12-28T07:54:59.217Z,1008.31
2022-12-28T07:55:59.257Z,1008.30
2022-12-28T07:56:59.474Z,1008.24
2022-12-28T07:57:59.333Z,1008.25
2022-12-28T07:58:59.422Z,1008.35
2022-12-28T07:59:59.184Z,1008.31
2022-12-28T08:00:59.314Z,1008.34
2022-12-28T08:01:59.293Z,1008.23
2022-12-28T08:02:59.402Z,1008.27
2022-12-28T08:03:59.618Z,1008.30
2022-12-28T08:05:00.042Z,1008.24
2022-12-28T08:05:59.143Z,1008.29
2022-12-28T08:06:59.142Z,1008.25
2022-12-28T08:08:03.552Z,1008.19
2022-12-28T08:08:59.043Z,1008.27
2022-12-28T08:09:59.075Z,1008.26
2022-12-28T08:10:59.015Z,1008.36
2022-12-28T08:11:59.014Z,1008.25
2022-12-28T08:12:59.017Z,1008.30
2022-12-28T08:13:59.021Z,1008.35
2022-12-28T08:14:58.971Z,1008.27
2022-12-28T08:15:59.136Z,1008.29
2022-12-28T08:16:58.967Z,1008.34
2022-12-28T08:17:59.426Z,1008.31
2022-12-28T08:18:59.196Z,1008.28
2022-12-28T08:19:58.921Z,1008.27
2022-12-28T08:20:58.904Z,1008.27
2022-12-28T08:21:58.906Z,1008.32
2022-12-28T08:22:58.857Z,1008.31
2022-12-28T08:23:58.857Z,1008.42
2022-12-28T08:24:58.845Z,1008.30
2022-12-28T08:25:58.825Z,1008.21
2022-12-28T08:26:58.810Z,1008.25
2022-12-28T08:27:58.826Z,1008.22
2022-12-28T08:28:59.402Z,1008.23
2022-12-28T08:29:58.791Z,1008.37
2022-12-28T08:30:58.833Z,1008.33
2022-12-28T08:31:59.122Z,1008.26
2022-12-28T08:32:58.748Z,1008.26
2022-12-28T08:33:58.879Z,1008.26
2022-12-28T08:34:59.703Z,1008.31
2022-12-28T08:35:59.086Z,1008.31
2022-12-28T08:36:59.392Z,1008.24
2022-12-28T08:37:58.682Z,1008.34
2022-12-28T08:38:59.033Z,1008.32
2022-12-28T08:39:59.413Z,1008.26
2022-12-28T08:40:59.394Z,1008.16
2022-12-28T08:41:58.647Z,1008.19
2022-12-28T08:42:59.022Z,1008.28
2022-12-28T08:43:58.606Z,1008.09
2022-12-28T08:44:58.609Z,1008.35
2022-12-28T08:45:58.729Z,1008.26
2022-12-28T08:46:58.614Z,1008.24
2022-12-28T08:47:58.667Z,1008.24
2022-12-28T08:48:59.345Z,1008.15
2022-12-28T08:49:58.758Z,1008.21
2022-12-28T08:50:58.796Z,1008.15
2022-12-28T08:51:58.856Z,1008.20
2022-12-28T08:52:59.256Z,1008.18
2022-12-28T08:53:58.946Z,1008.17
2022-12-28T08:54:59.227Z,1008.14
2022-12-28T08:56:06.365Z,1008.11
2022-12-28T08:56:58.498Z,1008.16
2022-12-28T08:57:58.539Z,1008.18
2022-12-28T08:58:58.399Z,1008.21
2022-12-28T08:59:58.391Z,1008.15
2022-12-28T09:00:58.381Z,1008.13
2022-12-28T09:01:58.692Z,1008.26
2022-12-28T09:03:02.575Z,1008.19
2022-12-28T09:03:58.466Z,1008.16
2022-12-28T09:04:58.374Z,1008.19
2022-12-28T09:05:58.418Z,1008.06
2022-12-28T09:07:02.142Z,1008.05
2022-12-28T09:07:59.887Z,1008.12
2022-12-28T09:09:06.481Z,1008.21
2022-12-28T09:09:59.488Z,1008.08
2022-12-28T09:10:58.275Z,1008.15
2022-12-28T09:12:02.405Z,1008.22
2022-12-28T09:12:58.494Z,1008.24
2022-12-28T09:13:58.208Z,1008.16
2022-12-28T09:14:58.211Z,1008.15
2022-12-28T09:15:58.244Z,1008.16
2022-12-28T09:16:59.017Z,1008.13
2022-12-28T09:17:58.186Z,1008.16
2022-12-28T09:18:58.143Z,1008.16
2022-12-28T09:19:58.536Z,1008.14
2022-12-28T09:20:58.888Z,1008.13
2022-12-28T09:21:58.384Z,1008.23
2022-12-28T09:22:58.112Z,1008.22
2022-12-28T09:23:58.901Z,1008.25
2022-12-28T09:24:58.123Z,1008.29
2022-12-28T09:25:58.070Z,1008.20
2022-12-28T09:26:58.698Z,1008.20
2022-12-28T09:27:59.591Z,1008.19
2022-12-28T09:28:58.021Z,1008.15
2022-12-28T09:29:58.014Z,1008.08
2022-12-28T09:30:58.030Z,1008.12
2022-12-28T09:31:58.000Z,1008.19
2022-12-28T09:32:57.963Z,1008.20
2022-12-28T09:34:34.367Z,1008.16
2022-12-28T09:34:58.954Z,1008.22
2022-12-28T09:35:57.940Z,1008.25
2022-12-28T09:36:57.930Z,1008.28
2022-12-28T09:37:57.926Z,1008.25
2022-12-28T09:38:58.230Z,1008.24
2022-12-28T09:40:01.401Z,1008.16
2022-12-28T09:40:57.866Z,1008.16
2022-12-28T09:41:57.883Z,1008.16
2022-12-28T09:42:58.657Z,1008.24
2022-12-28T09:43:57.823Z,1008.24
2022-12-28T09:44:57.808Z,1008.13
2022-12-28T09:45:57.832Z,1008.10
2022-12-28T09:47:02.154Z,1008.20
2022-12-28T09:47:57.788Z,1008.21
2022-12-28T09:48:58.337Z,1007.98
2022-12-28T09:49:59.607Z,1008.23
2022-12-28T09:50:57.750Z,1008.06
2022-12-28T09:51:59.518Z,1008.12
2022-12-28T09:52:57.715Z,1008.13
2022-12-28T09:53:57.697Z,1008.01
2022-12-28T09:54:57.699Z,1008.13
2022-12-28T09:56:01.438Z,1008.12
2022-12-28T09:56:57.665Z,1008.17
2022-12-28T09:57:57.795Z,1008.05
2022-12-28T09:58:57.920Z,1008.19
2022-12-28T10:00:09.336Z,1008.15
2022-12-28T10:00:57.952Z,1008.11
2022-12-28T10:02:01.868Z,1008.07
2022-12-28T10:02:58.356Z,1008.12
2022-12-28T10:03:57.600Z,1008.09
2022-12-28T10:04:58.512Z,1008.19
2022-12-28T10:05:57.970Z,1008.07
2022-12-28T10:06:58.340Z,1007.99
2022-12-28T10:07:58.384Z,1008.02
2022-12-28T10:08:57.514Z,1008.01
2022-12-28T10:09:57.603Z,1007.98
2022-12-28T10:10:58.230Z,1007.89
2022-12-28T10:11:57.485Z,1008.05
2022-12-28T10:12:57.455Z,1008.10
2022-12-28T10:13:57.473Z,1007.92
2022-12-28T10:14:57.447Z,1007.94
2022-12-28T10:15:57.487Z,1007.94
2022-12-28T10:16:57.790Z,1007.96
2022-12-28T10:17:57.806Z,1007.90
2022-12-28T10:18:57.391Z,1007.98
2022-12-28T10:19:57.381Z,1007.91
2022-12-28T10:20:57.360Z,1007.93
2022-12-28T10:21:57.378Z,1007.92
2022-12-28T10:22:57.329Z,1007.81
2022-12-28T10:24:29.596Z,1007.83
2022-12-28T10:24:58.318Z,1007.82
2022-12-28T10:25:57.299Z,1007.75
2022-12-28T10:26:57.285Z,1007.86
2022-12-28T10:27:57.609Z,1007.80
2022-12-28T10:28:57.308Z,1007.80
2022-12-28T10:29:57.298Z,1007.74
2022-12-28T10:30:57.296Z,1007.71
2022-12-28T10:31:58.053Z,1007.72
2022-12-28T10:33:02.455Z,1007.67
2022-12-28T10:33:58.309Z,1007.79
2022-12-28T10:34:57.199Z,1007.64
2022-12-28T10:35:57.173Z,1007.72
2022-12-28T10:36:57.309Z,1007.70
2022-12-28T10:37:57.153Z,1007.64
2022-12-28T10:38:57.187Z,1007.78
2022-12-28T10:39:57.200Z,1007.78
2022-12-28T10:40:57.202Z,1007.80
2022-12-28T10:41:57.223Z,1007.66
2022-12-28T10:42:57.115Z,1007.70
2022-12-28T10:44:29.215Z,1007.70
2022-12-28T10:44:58.979Z,1007.71
2022-12-28T10:45:57.305Z,1007.67
2022-12-28T10:46:57.317Z,1007.75
2022-12-28T10:47:57.026Z,1007.72
2022-12-28T10:48:57.301Z,1007.66
2022-12-28T10:50:27.061Z,1007.63
2022-12-28T10:50:59.006Z,1007.79
2022-12-28T10:51:56.977Z,1007.68
2022-12-28T10:52:57.010Z,1007.65
2022-12-28T10:53:57.286Z,1007.74
2022-12-28T10:55:08.125Z,1007.66
2022-12-28T10:55:57.919Z,1007.64
2022-12-28T10:56:57.020Z,1007.63
2022-12-28T10:58:28.778Z,1007.58
2022-12-28T10:58:57.879Z,1007.66
2022-12-28T10:59:57.279Z,1007.54
2022-12-28T11:00:57.221Z,1007.59
2022-12-28T11:01:56.988Z,1007.52
2022-12-28T11:02:57.048Z,1007.64
2022-12-28T11:03:58.434Z,1007.56
2022-12-28T11:04:57.107Z,1007.55
2022-12-28T11:05:57.589Z,1007.49
2022-12-28T11:06:57.289Z,1007.47
2022-12-28T11:07:57.274Z,1007.48
2022-12-28T11:08:56.903Z,1007.49
2022-12-28T11:09:56.739Z,1007.47
2022-12-28T11:10:57.297Z,1007.46
2022-12-28T11:11:56.715Z,1007.43
2022-12-28T11:12:56.703Z,1007.38
2022-12-28T11:13:56.717Z,1007.40
2022-12-28T11:14:57.273Z,1007.33
2022-12-28T11:15:56.721Z,1007.41
2022-12-28T11:16:56.654Z,1007.36
2022-12-28T11:17:57.269Z,1007.47
2022-12-28T11:18:56.655Z,1007.38
2022-12-28T11:19:56.639Z,1007.29
2022-12-28T11:20:56.750Z,1007.23
2022-12-28T11:21:56.593Z,1007.37
2022-12-28T11:22:56.593Z,1007.39
2022-12-28T11:23:56.864Z,1007.27
2022-12-28T11:24:56.558Z,1007.34
2022-12-28T11:25:56.558Z,1007.38
2022-12-28T11:26:56.604Z,1007.34
2022-12-28T11:27:56.517Z,1007.32
2022-12-28T11:28:56.523Z,1007.29
2022-12-28T11:29:56.498Z,1007.23
2022-12-28T11:30:56.521Z,1007.15
2022-12-28T11:31:56.507Z,1007.18
2022-12-28T11:32:56.498Z,1007.25
2022-12-28T11:33:56.436Z,1007.26
2022-12-28T11:34:56.454Z,1007.24
2022-12-28T11:35:59.844Z,1007.21
2022-12-28T11:36:56.401Z,1007.14
2022-12-28T11:37:56.703Z,1007.16
2022-12-28T11:38:56.733Z,1007.22
2022-12-28T11:39:56.422Z,1007.18
2022-12-28T11:40:56.353Z,1007.19
2022-12-28T11:42:36.639Z,1007.13
2022-12-28T11:42:57.346Z,1007.12
2022-12-28T11:43:57.153Z,1007.11
2022-12-28T11:44:56.891Z,1007.10
2022-12-28T11:45:56.336Z,1007.13
2022-12-28T11:46:56.285Z,1007.14
2022-12-28T11:47:56.981Z,1007.11
2022-12-28T11:48:56.999Z,1007.04
2022-12-28T11:49:56.238Z,1007.03
2022-12-28T11:50:56.377Z,1007.10
2022-12-28T11:51:57.046Z,1007.05
2022-12-28T11:52:56.212Z,1007.04
2022-12-28T11:53:56.441Z,1007.12
2022-12-28T11:54:56.206Z,1007.06
2022-12-28T11:55:56.737Z,1007.03
2022-12-28T11:56:56.191Z,1007.08
2022-12-28T11:57:56.147Z,1007.00
2022-12-28T11:58:56.746Z,1006.97
2022-12-28T11:59:56.109Z,1007.09
2022-12-28T12:00:56.201Z,1006.99
2022-12-28T12:01:56.185Z,1006.99
2022-12-28T12:02:56.656Z,1006.98
2022-12-28T12:03:56.888Z,1006.99
2022-12-28T12:04:56.063Z,1006.96